Time;durP1;ratioP1;P1;durP2;ratioP2;P2;SDS_P1;SDS_P2;PMS_P1;PMS_P2;Temp;Humidity;BMP_temperature;BMP_pressure;BME280_temperature;BME280_humidity;BME280_pressure;Samples;Min_cycle;Max_cycle;Signal;HPM_P1;HPM_P2
2022/01/27 00:01:01;;;;;;;33.27;16.73;;;4.00;1.00;;;;;;5126746;27;20449;-59
2022/01/27 00:03:33;;;;;;;31.23;16.37;;;4.00;1.00;;;;;;5118970;27;20439;-59
2022/01/27 00:06:07;;;;;;;40.77;16.10;;;4.10;1.00;;;;;;5128509;27;20473;-57
2022/01/27 00:08:57;;;;;;;29.33;14.40;;;4.00;1.00;;;;;;5126878;27;20443;-58
2022/01/27 00:11:21;;;;;;;29.53;15.43;;;4.00;1.00;;;;;;5130075;27;21011;-59
2022/01/27 00:13:53;;;;;;;30.27;14.93;;;3.90;1.00;;;;;;5128533;27;20513;-58
2022/01/27 00:16:25;;;;;;;32.03;16.17;;;3.90;1.00;;;;;;5108709;27;20185;-59
2022/01/27 00:18:52;;;;;;;26.97;12.00;;;3.90;1.00;;;;;;5122396;27;20451;-59
2022/01/27 00:21:26;;;;;;;27.17;13.90;;;3.90;1.00;;;;;;5127229;27;20447;-59
2022/01/27 00:23:53;;;;;;;27.10;13.97;;;4.00;1.00;;;;;;5127568;27;20796;-59
2022/01/27 00:26:19;;;;;;;32.73;15.60;;;4.00;1.00;;;;;;5127654;27;20443;-59
2022/01/27 00:28:46;;;;;;;30.73;14.23;;;3.90;1.00;;;;;;5127521;27;20432;-60
2022/01/27 00:31:12;;;;;;;27.60;13.87;;;4.00;1.00;;;;;;5127048;27;20443;-60
2022/01/27 00:33:38;;;;;;;32.77;16.13;;;4.10;1.00;;;;;;5127098;27;20796;-59
2022/01/27 00:36:04;;;;;;;33.10;14.70;;;4.00;1.00;;;;;;5129199;27;20450;-59
2022/01/27 00:38:30;;;;;;;27.77;13.60;;;1.20;1.00;;;;;;5128001;27;20185;-60
2022/01/27 00:40:56;;;;;;;34.23;15.97;;;4.20;1.00;;;;;;5127831;27;20537;-58
2022/01/27 00:43:22;;;;;;;26.60;14.53;;;4.20;1.00;;;;;;5125459;27;20554;-58
2022/01/27 00:45:48;;;;;;;31.80;15.70;;;4.10;1.00;;;;;;5123998;27;20216;-60
2022/01/27 00:48:16;;;;;;;42.33;18.60;;;4.10;1.00;;;;;;5125459;27;20515;-59
2022/01/27 00:50:43;;;;;;;31.67;15.20;;;4.10;1.00;;;;;;5124775;28;20177;-60
2022/01/27 00:54:15;;;;;;;33.87;16.10;;;4.20;1.00;;;;;;5127471;28;20773;-59
2022/01/27 00:56:17;;;;;;;34.57;17.07;;;4.20;1.00;;;;;;5107451;28;20463;-59
2022/01/27 00:58:52;;;;;;;38.43;16.80;;;4.20;1.00;;;;;;5127395;28;20434;-60
2022/01/27 01:01:22;;;;;;;34.90;15.77;;;4.20;1.00;;;;;;5105483;28;20472;-59
2022/01/27 01:03:51;;;;;;;31.40;14.60;;;;;;;;;;5130609;28;20460;-60
2022/01/27 01:06:32;;;;;;;33.97;16.27;;;4.10;1.00;;;;;;5105803;28;20434;-59
2022/01/27 01:34:47;;;;;;;31.00;14.27;;;4.30;1.00;;;;;;5129868;27;20191;-59
2022/01/27 01:37:17;;;;;;;30.73;14.73;;;4.30;1.00;;;;;;5124979;27;20937;-60
2022/01/27 01:39:43;;;;;;;28.40;14.80;;;4.40;1.00;;;;;;5124248;28;20446;-57
2022/01/27 01:42:10;;;;;;;34.70;15.67;;;4.30;1.00;;;;;;5108977;28;21124;-60
2022/01/27 01:44:36;;;;;;;27.70;16.20;;;4.30;1.00;;;;;;5121976;28;20259;-61
2022/01/27 01:47:03;;;;;;;33.53;15.73;;;4.30;1.00;;;;;;5125195;28;20462;-59
2022/01/27 01:49:29;;;;;;;34.47;15.67;;;4.20;1.00;;;;;;5129327;28;20519;-59
2022/01/27 01:52:02;;;;;;;24.90;14.87;;;4.30;1.00;;;;;;5128631;27;20498;-60
2022/01/27 01:54:27;;;;;;;31.33;15.17;;;4.30;1.00;;;;;;5129065;27;20910;-59
2022/01/27 01:56:53;;;;;;;28.33;14.33;;;4.20;1.00;;;;;;5129303;27;20437;-59
2022/01/27 01:59:19;;;;;;;33.23;14.03;;;4.10;1.00;;;;;;5124875;27;20181;-59
2022/01/27 02:01:45;;;;;;;25.53;13.60;;;4.20;1.00;;;;;;5129531;27;20224;-60
2022/01/27 02:04:12;;;;;;;27.00;13.93;;;4.20;1.00;;;;;;5131705;27;20469;-58
2022/01/27 02:06:48;;;;;;;29.33;13.70;;;4.20;1.00;;;;;;5132283;27;20980;-60
2022/01/27 02:19:55;;;;;;;22.93;12.57;;;4.40;1.00;;;;;;5123256;27;20799;-60
2022/01/27 02:22:21;;;;;;;29.23;14.40;;;4.40;1.00;;;;;;5109083;27;20965;-59
2022/01/27 02:24:47;;;;;;;31.73;13.80;;;4.50;1.00;;;;;;5129329;27;20596;-59
2022/01/27 02:27:15;;;;;;;26.87;12.70;;;4.40;1.00;;;;;;5133057;27;20459;-59
2022/01/27 02:29:41;;;;;;;26.87;14.20;;;4.20;1.00;;;;;;5129268;27;20439;-59
2022/01/27 02:32:07;;;;;;;25.53;13.03;;;4.40;1.00;;;;;;5129245;27;20465;-59
2022/01/27 02:34:34;;;;;;;26.20;11.30;;;4.30;1.00;;;;;;5126394;27;21090;-59
2022/01/27 02:37:00;;;;;;;25.20;13.30;;;4.40;1.00;;;;;;5130527;27;20973;-59
2022/01/27 02:39:26;;;;;;;25.50;11.13;;;4.40;1.00;;;;;;5126729;27;20447;-60
2022/01/27 02:41:52;;;;;;;22.70;11.77;;;;;;;;;;5130901;27;20209;-59
2022/01/27 02:44:29;;;;;;;22.70;11.30;;;4.30;1.00;;;;;;5126562;27;20481;-60
2022/01/27 02:46:55;;;;;;;23.37;11.57;;;4.20;1.00;;;;;;5128274;27;20414;-58
2022/01/27 02:49:21;;;;;;;28.40;14.87;;;4.30;1.00;;;;;;5127773;27;20455;-58
2022/01/27 02:51:47;;;;;;;24.60;12.53;;;;;;;;;;5128948;27;20457;-59
2022/01/27 02:54:13;;;;;;;27.87;14.23;;;4.30;1.00;;;;;;5128590;27;20185;-60
2022/01/27 02:56:44;;;;;;;28.90;12.23;;;4.30;1.00;;;;;;5111180;27;20417;-59
2022/01/27 02:59:10;;;;;;;23.03;11.80;;;4.30;1.00;;;;;;5131488;27;20186;-59
2022/01/27 03:01:36;;;;;;;26.00;12.80;;;;;;;;;;5128297;27;20456;-59
2022/01/27 03:04:02;;;;;;;26.67;13.30;;;4.30;1.00;;;;;;5125617;27;20438;-60
2022/01/27 03:06:27;;;;;;;22.90;12.83;;;4.30;1.00;;;;;;5128012;27;20439;-59
2022/01/27 03:08:53;;;;;;;27.37;14.23;;;4.20;1.00;;;;;;5127736;27;20192;-59
2022/01/27 03:11:53;;;;;;;30.57;13.50;;;4.20;1.00;;;;;;5128405;27;20185;-59
2022/01/27 03:14:21;;;;;;;22.90;13.20;;;4.30;1.00;;;;;;5117371;27;20193;-59
2022/01/27 03:16:48;;;;;;;25.97;11.93;;;4.30;1.00;;;;;;5127610;27;20430;-59
2022/01/27 03:19:13;;;;;;;24.50;12.10;;;4.30;1.00;;;;;;5130613;27;20454;-59
2022/01/27 03:21:40;;;;;;;25.40;12.50;;;4.30;1.00;;;;;;5127804;27;20446;-60
2022/01/27 03:24:06;;;;;;;25.53;12.00;;;4.40;1.00;;;;;;5131774;27;20555;-60
2022/01/27 03:26:32;;;;;;;23.23;12.57;;;4.30;1.00;;;;;;5127946;27;20442;-60
2022/01/27 03:28:59;;;;;;;23.97;12.87;;;4.40;1.00;;;;;;5126169;27;20418;-59
2022/01/27 03:31:25;;;;;;;25.20;11.37;;;4.40;1.00;;;;;;5122994;27;20436;-59
2022/01/27 03:33:50;;;;;;;23.87;13.60;;;4.20;1.00;;;;;;5129298;27;20495;-59
2022/01/27 03:36:17;;;;;;;26.10;13.67;;;4.20;1.00;;;;;;5130339;27;20454;-59
2022/01/27 03:38:42;;;;;;;22.93;11.57;;;4.30;1.00;;;;;;5128954;27;20185;-59
2022/01/27 03:41:09;;;;;;;31.63;13.67;;;4.30;1.00;;;;;;5127921;27;20571;-59
2022/01/27 03:43:36;;;;;;;25.50;13.80;;;4.50;1.00;;;;;;5122496;27;20530;-62
2022/01/27 03:46:03;;;;;;;30.00;13.03;;;4.50;1.00;;;;;;5127510;27;20467;-58
2022/01/27 03:48:29;;;;;;;27.17;13.37;;;4.50;1.00;;;;;;5127510;27;20473;-59
2022/01/27 03:50:55;;;;;;;27.07;14.00;;;4.50;1.00;;;;;;5125792;27;20767;-58
2022/01/27 03:53:21;;;;;;;24.40;14.40;;;4.50;1.00;;;;;;5124594;27;20264;-59
2022/01/27 03:55:47;;;;;;;25.30;12.93;;;4.40;1.00;;;;;;5127699;27;20563;-59
2022/01/27 03:58:13;;;;;;;22.80;12.17;;;4.40;1.00;;;;;;5125149;27;20189;-59
2022/01/27 04:00:39;;;;;;;26.00;13.37;;;4.50;1.00;;;;;;5129884;27;20208;-60
2022/01/27 04:03:08;;;;;;;30.50;14.27;;;4.50;1.00;;;;;;5108694;27;20425;-60
2022/01/27 04:05:48;;;;;;;27.80;11.93;;;4.50;1.00;;;;;;5127915;27;20455;-59
2022/01/27 04:08:14;;;;;;;23.07;12.67;;;4.50;1.00;;;;;;5127551;27;20445;-60
2022/01/27 04:10:40;;;;;;;22.40;12.10;;;4.60;1.00;;;;;;5128184;27;20439;-59
2022/01/27 04:13:06;;;;;;;29.20;13.73;;;4.60;1.00;;;;;;5128221;27;20199;-59
2022/01/27 04:15:33;;;;;;;27.57;12.70;;;4.60;1.00;;;;;;5127047;27;20192;-59
2022/01/27 04:17:59;;;;;;;32.67;14.17;;;4.50;1.00;;;;;;5129250;27;20443;-58
2022/01/27 04:20:25;;;;;;;31.67;16.00;;;4.40;1.00;;;;;;5111846;27;21115;-60
2022/01/27 04:22:50;;;;;;;29.37;14.80;;;4.40;1.00;;;;;;5131021;27;20187;-60
2022/01/27 04:25:16;;;;;;;25.93;12.63;;;4.40;1.00;;;;;;5129796;27;20229;-59
2022/01/27 04:27:47;;;;;;;31.40;14.13;;;4.40;1.00;;;;;;5124201;27;20211;-58
2022/01/27 04:30:18;;;;;;;30.47;14.27;;;4.40;1.00;;;;;;5126117;27;20205;-58
2022/01/27 04:32:50;;;;;;;23.40;12.97;;;4.50;1.00;;;;;;5131023;27;20427;-59
2022/01/27 04:35:19;;;;;;;29.97;12.43;;;4.50;1.00;;;;;;5117497;27;20450;-59
2022/01/27 04:40:44;;;;;;;24.90;13.43;;;4.60;1.00;;;;;;5120399;27;20418;-59
2022/01/27 04:45:55;;;;;;;31.77;13.40;;;4.70;1.00;;;;;;5116248;27;20483;-58
2022/01/27 04:48:22;;;;;;;25.40;12.10;;;4.70;1.00;;;;;;5113275;28;20522;-58
2022/01/27 04:50:50;;;;;;;22.70;11.30;;;4.70;1.00;;;;;;5092991;28;20552;-59
2022/01/27 04:53:26;;;;;;;32.03;13.30;;;4.80;1.00;;;;;;5116173;28;20454;-59
2022/01/27 04:55:54;;;;;;;31.70;13.40;;;4.80;1.00;;;;;;5123718;28;20451;-58
2022/01/27 04:58:27;;;;;;;23.87;11.50;;;4.80;1.00;;;;;;5128235;27;20442;-59
2022/01/27 05:00:53;;;;;;;28.10;12.40;;;4.90;1.00;;;;;;5126630;28;20423;-59
2022/01/27 05:03:31;;;;;;;20.67;12.03;;;4.90;1.00;;;;;;5129654;28;20437;-60
2022/01/27 05:05:57;;;;;;;24.93;12.77;;;;;;;;;;5123727;27;20924;-57
2022/01/27 05:08:23;;;;;;;27.47;12.87;;;4.80;1.00;;;;;;5129347;28;20788;-59
2022/01/27 05:10:57;;;;;;;24.10;12.87;;;4.70;1.00;;;;;;5125860;28;20431;-59
2022/01/27 05:13:25;;;;;;;25.23;12.63;;;4.90;1.00;;;;;;5127103;28;20986;-60
2022/01/27 05:15:51;;;;;;;25.57;12.00;;;4.90;1.00;;;;;;5124601;28;20897;-60
2022/01/27 05:18:16;;;;;;;21.53;11.57;;;4.90;1.00;;;;;;5127274;27;20523;-60
2022/01/27 05:20:42;;;;;;;21.63;12.07;;;4.80;1.00;;;;;;5129854;27;20208;-60
2022/01/27 05:23:08;;;;;;;23.50;11.27;;;4.90;1.00;;;;;;5129247;28;20193;-60
2022/01/27 05:25:33;;;;;;;21.57;11.23;;;4.90;1.00;;;;;;5127921;27;20241;-60
2022/01/27 05:27:59;;;;;;;23.97;11.73;;;4.90;1.00;;;;;;5113432;27;20702;-60
2022/01/27 05:30:25;;;;;;;19.77;10.40;;;4.80;1.00;;;;;;5130173;27;20639;-60
2022/01/27 05:32:51;;;;;;;22.67;11.07;;;4.80;1.00;;;;;;5132901;27;20406;-60
2022/01/27 05:35:16;;;;;;;25.67;11.93;;;4.90;1.00;;;;;;5133417;27;20193;-59
2022/01/27 05:37:42;;;;;;;20.70;11.43;;;4.80;1.00;;;;;;5131867;27;20177;-59
2022/01/27 05:40:08;;;;;;;18.30;10.63;;;4.80;1.00;;;;;;5131161;27;20181;-59
2022/01/27 05:42:34;;;;;;;25.57;12.40;;;4.70;1.00;;;;;;5133047;27;20642;-60
2022/01/27 05:44:59;;;;;;;18.73;10.57;;;4.80;1.00;;;;;;5130195;27;20523;-60
2022/01/27 05:47:25;;;;;;;23.13;12.00;;;4.70;1.00;;;;;;5132270;27;20189;-59
2022/01/27 05:49:50;;;;;;;17.80;11.13;;;4.70;1.00;;;;;;5132913;27;20219;-60
2022/01/27 05:52:16;;;;;;;15.67;10.43;;;4.80;1.00;;;;;;5133873;27;20185;-59
2022/01/27 05:54:42;;;;;;;21.33;11.43;;;4.60;1.00;;;;;;5125780;27;20262;-59
2022/01/27 05:57:08;;;;;;;14.67;9.60;;;4.50;1.00;;;;;;5110423;27;20185;-58
2022/01/27 05:59:33;;;;;;;16.07;9.20;;;4.60;1.00;;;;;;5132992;27;20439;-59
2022/01/27 06:01:59;;;;;;;19.20;10.30;;;4.40;1.00;;;;;;5130333;27;20194;-59
2022/01/27 06:04:25;;;;;;;14.23;9.00;;;4.50;1.00;;;;;;5130998;27;20197;-59
2022/01/27 06:06:53;;;;;;;16.90;10.77;;;;;;;;;;5130979;27;20561;-59
2022/01/27 06:09:18;;;;;;;12.97;8.43;;;4.40;1.00;;;;;;5128690;27;22127;-60
2022/01/27 06:11:44;;;;;;;17.13;9.93;;;4.50;1.00;;;;;;5132811;27;20438;-59
2022/01/27 06:14:09;;;;;;;18.30;9.97;;;4.50;1.00;;;;;;5132284;27;20190;-59
2022/01/27 06:16:35;;;;;;;15.63;10.30;;;4.50;1.00;;;;;;5132867;27;20647;-60
2022/01/27 06:19:03;;;;;;;14.77;9.00;;;4.50;1.00;;;;;;5111029;27;20546;-59
2022/01/27 06:21:30;;;;;;;17.90;10.00;;;;;;;;;;5132684;27;20197;-60
2022/01/27 06:23:56;;;;;;;18.00;10.00;;;4.40;1.00;;;;;;5132686;27;21003;-60
2022/01/27 06:26:22;;;;;;;17.77;11.30;;;4.50;1.00;;;;;;5133304;27;20537;-60
2022/01/27 06:28:48;;;;;;;17.80;10.73;;;4.50;1.00;;;;;;5131424;27;20165;-59
2022/01/27 06:31:14;;;;;;;13.80;10.37;;;4.40;1.00;;;;;;5132109;27;20447;-59
2022/01/27 06:33:40;;;;;;;19.20;10.83;;;;;;;;;;5128895;27;20612;-59
2022/01/27 06:36:08;;;;;;;16.30;11.00;;;4.40;1.00;;;;;;5131933;27;20188;-59
2022/01/27 06:38:33;;;;;;;13.73;9.03;;;4.50;1.00;;;;;;5128998;27;20422;-60
2022/01/27 06:40:59;;;;;;;17.60;11.27;;;4.30;1.00;;;;;;5133459;27;20427;-61
2022/01/27 06:43:24;;;;;;;15.43;10.10;;;4.30;1.00;;;;;;5132588;27;20174;-59
2022/01/27 06:45:50;;;;;;;17.30;10.17;;;4.20;1.00;;;;;;5129903;27;20225;-59
2022/01/27 06:48:15;;;;;;;15.50;10.17;;;4.40;1.00;;;;;;5130500;27;20204;-58
2022/01/27 06:50:41;;;;;;;17.93;11.27;;;4.50;1.00;;;;;;5131624;27;20214;-59
2022/01/27 06:53:07;;;;;;;17.20;11.80;;;4.50;1.00;;;;;;5132251;27;20184;-58
2022/01/27 06:55:33;;;;;;;16.20;11.10;;;4.50;1.00;;;;;;5128227;27;20216;-59
2022/01/27 06:57:58;;;;;;;15.37;9.07;;;4.40;1.00;;;;;;5128672;27;20471;-60
2022/01/27 07:00:24;;;;;;;16.90;10.90;;;4.50;1.00;;;;;;5131592;27;20191;-58
2022/01/27 07:02:49;;;;;;;15.00;10.10;;;4.50;1.00;;;;;;5129125;27;20209;-61
2022/01/27 07:05:17;;;;;;;13.90;9.30;;;4.30;1.00;;;;;;5129154;27;20247;-59
2022/01/27 07:07:43;;;;;;;12.03;8.90;;;4.30;1.00;;;;;;5131356;27;20173;-60
2022/01/27 07:10:09;;;;;;;18.10;10.13;;;4.40;1.00;;;;;;5129037;27;20789;-58
2022/01/27 07:12:35;;;;;;;12.80;8.77;;;4.30;1.00;;;;;;5129738;27;20441;-59
2022/01/27 07:15:00;;;;;;;15.43;10.90;;;4.10;1.00;;;;;;5131176;27;20737;-60
2022/01/27 07:17:27;;;;;;;14.10;9.37;;;4.20;1.00;;;;;;5112385;27;20185;-60
2022/01/27 07:19:53;;;;;;;17.10;10.00;;;4.30;1.00;;;;;;5111492;27;20269;-60
2022/01/27 07:22:19;;;;;;;14.33;9.40;;;4.40;1.00;;;;;;5131709;27;20929;-60
2022/01/27 07:24:44;;;;;;;17.53;11.00;;;4.30;1.00;;;;;;5129886;27;20197;-60
2022/01/27 07:27:10;;;;;;;23.93;13.70;;;4.40;1.00;;;;;;5130846;27;20792;-61
2022/01/27 07:29:36;;;;;;;17.47;11.20;;;4.40;1.00;;;;;;5130821;27;20196;-60
2022/01/27 07:32:01;;;;;;;14.00;10.57;;;4.40;1.00;;;;;;5126877;27;20718;-60
2022/01/27 07:34:27;;;;;;;18.50;11.10;;;4.40;1.00;;;;;;5113028;27;21008;-60
2022/01/27 07:36:57;;;;;;;19.37;10.93;;;4.40;1.00;;;;;;5131904;27;20267;-59
2022/01/27 07:39:22;;;;;;;16.40;10.63;;;4.50;1.00;;;;;;5131849;27;20542;-59
2022/01/27 07:41:49;;;;;;;15.97;10.97;;;;;;;;;;5130334;27;20427;-59
2022/01/27 07:44:14;;;;;;;15.40;10.50;;;4.40;1.00;;;;;;5131323;27;20205;-59
2022/01/27 07:46:40;;;;;;;17.13;12.10;;;4.40;1.00;;;;;;5112745;27;20449;-59
2022/01/27 07:49:06;;;;;;;18.07;11.60;;;4.30;1.00;;;;;;5128116;27;20181;-58
2022/01/27 07:51:31;;;;;;;15.97;11.50;;;4.20;1.00;;;;;;5129381;27;20184;-60
2022/01/27 07:53:57;;;;;;;16.73;11.00;;;4.30;1.00;;;;;;5131432;27;20174;-59
2022/01/27 07:56:22;;;;;;;18.93;12.60;;;4.40;1.00;;;;;;5130486;27;20264;-60
2022/01/27 07:58:48;;;;;;;16.07;11.40;;;4.50;1.00;;;;;;5131067;27;20238;-60
2022/01/27 08:01:14;;;;;;;17.50;11.10;;;4.50;1.00;;;;;;5129476;27;20197;-59
2022/01/27 08:03:39;;;;;;;14.00;10.03;;;4.60;1.00;;;;;;5111492;27;20181;-59
2022/01/27 08:06:06;;;;;;;15.63;10.30;;;4.60;1.00;;;;;;5131345;27;20669;-60
2022/01/27 08:08:33;;;;;;;16.60;11.93;;;4.60;1.00;;;;;;5131550;27;20584;-59
2022/01/27 08:10:59;;;;;;;14.40;10.37;;;4.40;1.00;;;;;;5131291;27;20420;-58
2022/01/27 08:13:25;;;;;;;14.40;10.93;;;4.40;1.00;;;;;;5131546;27;20488;-59
2022/01/27 08:15:51;;;;;;;19.97;13.37;;;4.30;1.00;;;;;;5131189;27;20439;-59
2022/01/27 08:18:17;;;;;;;17.37;12.03;;;;;;;;;;5131499;27;20431;-59
2022/01/27 08:20:44;;;;;;;17.90;11.60;;;4.50;1.00;;;;;;5134749;27;20446;-59
2022/01/27 08:23:12;;;;;;;13.33;10.50;;;4.50;1.00;;;;;;5131242;27;20487;-59
2022/01/27 08:25:38;;;;;;;15.97;10.67;;;4.70;1.00;;;;;;5131283;27;20462;-59
2022/01/27 08:28:07;;;;;;;16.40;11.20;;;4.70;1.00;;;;;;5112302;27;20953;-59
2022/01/27 08:30:40;;;;;;;13.73;9.60;;;4.60;1.00;;;;;;5131172;27;20176;-58
2022/01/27 08:33:12;;;;;;;16.50;10.67;;;4.70;1.00;;;;;;5130756;27;20413;-59
2022/01/27 08:35:38;;;;;;;15.03;12.00;;;4.70;1.00;;;;;;5131035;27;20447;-59
2022/01/27 08:38:04;;;;;;;16.67;10.33;;;4.70;1.00;;;;;;5131097;27;20436;-60
2022/01/27 08:40:30;;;;;;;15.07;10.83;;;4.80;1.00;;;;;;5130948;27;20517;-59
2022/01/27 08:42:57;;;;;;;12.77;9.93;;;4.70;1.00;;;;;;5131194;27;20182;-59
2022/01/27 08:45:25;;;;;;;19.77;11.03;;;4.70;1.00;;;;;;5112430;27;20248;-58
2022/01/27 08:47:51;;;;;;;16.67;11.23;;;4.60;1.00;;;;;;5131586;27;20477;-60
2022/01/27 08:50:19;;;;;;;18.20;11.77;;;4.70;1.00;;;;;;5112027;28;20549;-59
2022/01/27 08:52:45;;;;;;;15.63;10.07;;;4.80;1.00;;;;;;5131156;28;20450;-59
2022/01/27 08:55:11;;;;;;;16.23;11.20;;;4.70;1.00;;;;;;5131563;28;20530;-59
2022/01/27 08:57:37;;;;;;;18.30;12.07;;;4.60;1.00;;;;;;5131047;28;20515;-58
2022/01/27 09:00:08;;;;;;;17.80;11.40;;;4.60;1.00;;;;;;5132224;27;20495;-59
2022/01/27 09:02:34;;;;;;;18.43;11.83;;;4.40;1.00;;;;;;5135387;27;20872;-59
2022/01/27 09:05:00;;;;;;;16.13;11.10;;;;;;;;;;5135331;27;20519;-59
2022/01/27 09:07:26;;;;;;;17.77;10.97;;;4.50;1.00;;;;;;5135199;27;20575;-58
2022/01/27 09:09:51;;;;;;;16.40;10.73;;;4.50;1.00;;;;;;5135261;27;20509;-59
2022/01/27 09:12:17;;;;;;;16.50;10.40;;;4.60;1.00;;;;;;5135596;27;20177;-59
2022/01/27 09:14:43;;;;;;;16.03;10.90;;;4.60;1.00;;;;;;5135272;27;20181;-59
2022/01/27 09:17:11;;;;;;;15.17;11.47;;;4.80;1.00;;;;;;5134851;27;20197;-59
2022/01/27 09:19:39;;;;;;;14.63;10.10;;;4.80;1.00;;;;;;5116753;27;20909;-59
2022/01/27 09:22:12;;;;;;;14.50;11.10;;;4.60;1.00;;;;;;5135012;27;20450;-60
2022/01/27 09:24:52;;;;;;;16.27;11.23;;;4.60;1.00;;;;;;5134761;27;20527;-59
2022/01/27 09:27:18;;;;;;;17.20;12.10;;;4.70;1.00;;;;;;5134934;27;20431;-59
2022/01/27 09:29:45;;;;;;;19.00;11.40;;;;;;;;;;5137908;27;20438;-60
2022/01/27 09:32:11;;;;;;;15.93;11.10;;;4.60;1.00;;;;;;5116583;27;20529;-59
2022/01/27 09:34:37;;;;;;;14.10;10.00;;;4.70;1.00;;;;;;5134820;27;20526;-59
2022/01/27 09:37:03;;;;;;;14.87;11.20;;;4.80;1.00;;;;;;5134598;27;20256;-60
2022/01/27 09:39:34;;;;;;;18.40;11.90;;;4.90;1.00;;;;;;5134374;27;20890;-60
2022/01/27 09:42:00;;;;;;;15.90;11.10;;;5.30;1.00;;;;;;5134582;27;20435;-58
2022/01/27 09:44:31;;;;;;;16.53;11.43;;;5.20;1.00;;;;;;5133931;27;20475;-59
2022/01/27 09:47:00;;;;;;;18.97;11.60;;;5.10;1.00;;;;;;5134197;27;20430;-59
2022/01/27 09:49:36;;;;;;;15.80;11.10;;;5.00;1.00;;;;;;5134610;27;20494;-59
2022/01/27 09:52:03;;;;;;;15.67;10.50;;;5.00;1.00;;;;;;5132901;27;20437;-59
2022/01/27 09:54:28;;;;;;;20.60;12.40;;;5.00;1.00;;;;;;5133720;27;20438;-59
2022/01/27 09:56:54;;;;;;;18.63;11.60;;;5.10;1.00;;;;;;5134045;27;20442;-59
2022/01/27 09:59:21;;;;;;;15.20;10.80;;;5.20;1.00;;;;;;5133734;27;20514;-59
2022/01/27 10:02:03;;;;;;;17.07;10.80;;;5.10;1.00;;;;;;5135266;27;20250;-59
2022/01/27 10:04:50;;;;;;;18.37;11.20;;;5.20;1.00;;;;;;5134023;27;20466;-59
2022/01/27 10:07:19;;;;;;;17.50;11.27;;;5.20;1.00;;;;;;5133905;27;20745;-59
2022/01/27 10:10:03;;;;;;;22.23;12.27;;;5.40;1.00;;;;;;5133557;27;20459;-59
2022/01/27 10:12:50;;;;;;;18.83;11.83;;;5.40;1.00;;;;;;5132748;27;20422;-59
2022/01/27 10:15:21;;;;;;;16.53;10.43;;;5.40;1.00;;;;;;5114311;27;20431;-59
2022/01/27 10:18:05;;;;;;;19.07;11.60;;;5.30;1.00;;;;;;5133596;27;20449;-59
2022/01/27 10:20:32;;;;;;;15.50;10.97;;;5.30;1.00;;;;;;5133824;27;20435;-59
2022/01/27 10:23:11;;;;;;;16.80;11.40;;;5.40;1.00;;;;;;5133165;27;20944;-59
2022/01/27 10:25:46;;;;;;;20.20;11.80;;;5.40;1.00;;;;;;5133549;27;20812;-59
2022/01/27 10:28:39;;;;;;;15.80;9.93;;;5.50;1.00;;;;;;5133388;27;20429;-58
2022/01/27 10:31:20;;;;;;;18.60;10.37;;;5.60;1.00;;;;;;5118093;27;20492;-59
2022/01/27 10:33:58;;;;;;;16.73;12.10;;;5.60;1.00;;;;;;5133438;27;20435;-58
2022/01/27 10:36:25;;;;;;;20.40;11.80;;;5.50;1.00;;;;;;5132719;27;20401;-59
2022/01/27 10:38:56;;;;;;;16.17;11.60;;;5.60;1.00;;;;;;5133049;27;20446;-59
2022/01/27 10:41:27;;;;;;;16.90;10.90;;;5.60;1.00;;;;;;5132644;27;20575;-59
2022/01/27 10:44:17;;;;;;;17.40;11.83;;;5.40;1.00;;;;;;5114517;27;20534;-57
2022/01/27 10:47:15;;;;;;;16.70;11.17;;;5.30;1.00;;;;;;5120713;27;20467;-60
2022/01/27 10:49:46;;;;;;;18.10;11.50;;;5.30;1.00;;;;;;5133340;27;20443;-59
2022/01/27 10:52:30;;;;;;;17.13;11.03;;;5.30;1.00;;;;;;5132820;27;20525;-59
2022/01/27 10:55:05;;;;;;;18.37;11.00;;;5.00;1.00;;;;;;5114636;27;20450;-59
2022/01/27 10:57:31;;;;;;;15.10;10.63;;;5.20;1.00;;;;;;5133095;27;20955;-60
2022/01/27 11:00:10;;;;;;;16.17;10.60;;;5.40;1.00;;;;;;5132690;27;20518;-60
2022/01/27 11:02:57;;;;;;;18.70;10.37;;;5.50;1.00;;;;;;5133200;27;20499;-59
2022/01/27 11:05:25;;;;;;;12.60;9.83;;;5.40;1.00;;;;;;5132533;27;20982;-59
2022/01/27 11:07:51;;;;;;;15.40;10.40;;;5.30;1.00;;;;;;5130265;27;21083;-59
2022/01/27 11:10:19;;;;;;;21.03;12.50;;;5.40;1.00;;;;;;5133097;27;20538;-59
2022/01/27 11:12:45;;;;;;;14.73;9.47;;;5.50;1.00;;;;;;5114067;27;20511;-59
2022/01/27 11:15:13;;;;;;;17.47;11.13;;;5.50;1.00;;;;;;5132791;27;20845;-59
2022/01/27 11:17:41;;;;;;;18.20;11.20;;;5.50;1.00;;;;;;5132495;27;20447;-59
2022/01/27 11:21:12;;;;;;;18.40;11.47;;;5.50;1.00;;;;;;5132873;27;20936;-60
2022/01/27 11:25:52;;;;;;;18.37;10.17;;;5.90;1.00;;;;;;5130923;27;20942;-59
2022/01/27 11:28:20;;;;;;;16.00;10.30;;;5.90;1.00;;;;;;5132628;27;20518;-59
2022/01/27 11:30:59;;;;;;;15.70;10.40;;;6.00;1.00;;;;;;5132227;27;20438;-58
2022/01/27 11:33:33;;;;;;;18.03;12.43;;;5.90;1.00;;;;;;5132341;27;20466;-59
2022/01/27 11:36:04;;;;;;;15.77;11.60;;;5.80;1.00;;;;;;5131702;27;20437;-59
2022/01/27 11:38:30;;;;;;;17.57;11.60;;;;;;;;;;5131801;27;20788;-58
2022/01/27 11:40:56;;;;;;;17.67;12.07;;;5.60;1.00;;;;;;5132223;27;20537;-58
2022/01/27 11:43:33;;;;;;;14.90;9.40;;;5.60;1.00;;;;;;5131986;27;20498;-59
2022/01/27 11:46:15;;;;;;;23.10;11.33;;;5.50;1.00;;;;;;5131241;27;20573;-58
2022/01/27 11:48:41;;;;;;;20.37;12.10;;;5.50;1.00;;;;;;5131299;27;20441;-59
2022/01/27 11:51:13;;;;;;;17.40;11.90;;;5.60;1.00;;;;;;5128695;27;20975;-58
2022/01/27 11:53:48;;;;;;;19.37;11.47;;;5.50;1.00;;;;;;5131684;27;20927;-59
2022/01/27 11:56:23;;;;;;;20.03;13.77;;;5.50;1.00;;;;;;5131824;27;20526;-58
2022/01/27 11:58:51;;;;;;;22.17;12.80;;;5.50;1.00;;;;;;5113358;27;20434;-59
2022/01/27 12:01:22;;;;;;;20.37;12.70;;;5.60;1.00;;;;;;5112911;27;20434;-58
2022/01/27 12:04:06;;;;;;;21.87;12.87;;;5.70;1.00;;;;;;5131118;27;20845;-60
2022/01/27 12:06:48;;;;;;;18.70;12.33;;;5.70;1.00;;;;;;5131037;27;20437;-59
2022/01/27 12:09:20;;;;;;;16.93;9.93;;;5.40;1.00;;;;;;5112719;27;20442;-60
2022/01/27 12:11:50;;;;;;;20.50;11.37;;;5.50;1.00;;;;;;5131489;27;20431;-59
2022/01/27 12:14:23;;;;;;;16.10;10.47;;;5.40;1.00;;;;;;5131505;27;20435;-59
2022/01/27 12:17:07;;;;;;;17.73;11.13;;;5.60;1.00;;;;;;5131372;27;20435;-59
2022/01/27 12:20:03;;;;;;;19.97;12.50;;;5.60;1.00;;;;;;5130951;27;20457;-58
2022/01/27 12:22:46;;;;;;;16.20;10.50;;;5.40;1.00;;;;;;5130952;27;20433;-59
2022/01/27 12:25:12;;;;;;;17.90;11.40;;;5.40;1.00;;;;;;5131214;27;20963;-58
2022/01/27 12:27:39;;;;;;;18.37;11.97;;;5.40;1.00;;;;;;5130940;27;21340;-58
2022/01/27 12:30:09;;;;;;;21.13;11.77;;;5.40;1.00;;;;;;5112523;27;20435;-59
2022/01/27 12:32:35;;;;;;;19.03;10.80;;;5.50;1.00;;;;;;5130664;27;20458;-59
2022/01/27 12:35:04;;;;;;;18.10;10.20;;;5.60;1.00;;;;;;5131004;27;20469;-59
2022/01/27 12:37:34;;;;;;;17.73;10.50;;;5.60;1.00;;;;;;5131083;27;20434;-59
2022/01/27 12:40:33;;;;;;;19.70;12.20;;;5.60;1.00;;;;;;5132719;27;20466;-58
2022/01/27 12:43:07;;;;;;;18.27;10.10;;;5.60;1.00;;;;;;5131638;27;20488;-58
2022/01/27 12:45:35;;;;;;;17.63;10.03;;;5.60;1.00;;;;;;5130645;27;20470;-59
2022/01/27 12:48:12;;;;;;;20.27;12.13;;;5.60;1.00;;;;;;5112972;27;20872;-59
2022/01/27 12:50:38;;;;;;;17.23;10.40;;;5.50;1.00;;;;;;5132103;27;20781;-58
2022/01/27 12:53:11;;;;;;;14.73;9.63;;;5.50;1.00;;;;;;5112581;28;20442;-59
2022/01/27 12:55:40;;;;;;;25.27;11.17;;;5.50;1.00;;;;;;5131004;28;20173;-58
2022/01/27 12:58:11;;;;;;;21.27;12.50;;;5.60;1.00;;;;;;5130870;28;20443;-59
2022/01/27 13:00:37;;;;;;;20.30;12.47;;;5.60;1.00;;;;;;5132810;27;20460;-58
2022/01/27 13:03:03;;;;;;;19.80;11.73;;;5.60;1.00;;;;;;5130643;28;20419;-59
2022/01/27 13:05:40;;;;;;;16.17;10.17;;;5.60;1.00;;;;;;5130494;28;20209;-60
2022/01/27 13:08:17;;;;;;;19.73;10.93;;;5.60;1.00;;;;;;5130709;28;20464;-59
2022/01/27 13:10:48;;;;;;;19.40;11.47;;;5.50;1.00;;;;;;5130746;28;20423;-59
2022/01/27 13:13:22;;;;;;;22.27;11.50;;;5.60;1.00;;;;;;5131447;27;20879;-59
2022/01/27 13:16:03;;;;;;;18.33;10.63;;;5.80;1.00;;;;;;5130660;27;20495;-59
2022/01/27 13:18:56;;;;;;;16.60;10.30;;;5.80;1.00;;;;;;5130646;28;20435;-58
2022/01/27 13:21:32;;;;;;;18.60;11.10;;;5.70;1.00;;;;;;5130481;28;20563;-59
2022/01/27 13:24:14;;;;;;;18.53;11.70;;;7.90;1.00;;;;;;5130451;28;20439;-59
2022/01/27 13:26:44;;;;;;;14.60;10.10;;;5.70;1.00;;;;;;5130741;27;20432;-59
2022/01/27 13:29:10;;;;;;;16.17;10.60;;;5.80;1.00;;;;;;5112428;28;20413;-59
2022/01/27 13:31:36;;;;;;;16.00;10.90;;;;;;;;;;5130526;28;20431;-59
2022/01/27 13:34:03;;;;;;;21.73;11.33;;;5.60;1.00;;;;;;5130647;28;20476;-59
2022/01/27 13:36:32;;;;;;;17.50;9.93;;;5.70;1.00;;;;;;5112720;28;20489;-60
2022/01/27 13:39:09;;;;;;;24.33;11.43;;;;;;;;;;5095849;28;20774;-59
2022/01/27 13:41:40;;;;;;;15.67;9.50;;;5.50;1.00;;;;;;5130629;28;20431;-59
2022/01/27 13:44:13;;;;;;;13.90;8.30;;;5.60;1.00;;;;;;5130103;27;20569;-59
2022/01/27 13:46:45;;;;;;;16.10;9.57;;;5.70;1.00;;;;;;5112971;28;20527;-59